Time;durP1;ratioP1;P1;durP2;ratioP2;P2;SDS_P1;SDS_P2;PMS_P1;PMS_P2;Temp;Humidity;BMP_temperature;BMP_pressure;BME280_temperature;BME280_humidity;BME280_pressure;Samples;Min_cycle;Max_cycle;Signal;HPM_P1;HPM_P2
2023/03/30 00:00:17;;;;;;;11.20;2.72;;;15.40;99.90;;;;;;5001089;28;20039;-85
2023/03/30 00:02:52;;;;;;;12.40;2.42;;;13.40;99.90;;;;;;4991579;28;20044;-82
2023/03/30 00:05:18;;;;;;;10.48;2.88;;;;;;;;;;5005780;28;20056;-84
2023/03/30 00:07:44;;;;;;;14.02;2.80;;;15.40;99.90;;;;;;5004077;28;20116;-84
2023/03/30 00:10:16;;;;;;;12.90;2.83;;;15.40;99.90;;;;;;4997296;28;20034;-84
2023/03/30 00:12:44;;;;;;;8.45;2.22;;;15.60;99.90;;;;;;4999375;28;20109;-84
2023/03/30 00:15:11;;;;;;;11.32;2.78;;;15.60;99.90;;;;;;4995285;28;20033;-83
2023/03/30 00:17:37;;;;;;;11.40;2.60;;;;;;;;;;4993541;28;20031;-85
2023/03/30 00:20:13;;;;;;;13.20;2.20;;;15.60;99.90;;;;;;4990039;28;20042;-84
2023/03/30 00:22:40;;;;;;;14.77;3.20;;;15.50;99.90;;;;;;4997147;28;20037;-84
2023/03/30 00:25:11;;;;;;;11.73;2.55;;;15.50;99.90;;;;;;5016808;28;20030;-85
2023/03/30 00:27:37;;;;;;;10.23;2.85;;;;;;;;;;5005726;28;20026;-84
2023/03/30 00:30:09;;;;;;;11.63;2.60;;;15.60;99.90;;;;;;5001403;28;20033;-82
2023/03/30 00:32:35;;;;;;;9.15;2.55;;;15.60;99.90;;;;;;5012756;28;20094;-86
2023/03/30 00:35:01;;;;;;;11.63;2.92;;;;;;;;;;5014393;28;20537;-83
2023/03/30 00:37:28;;;;;;;11.32;2.53;;;;;;;;;;5010007;28;20072;-86
2023/03/30 00:39:54;;;;;;;10.85;2.72;;;15.60;99.90;;;;;;5011921;28;20443;-86
2023/03/30 00:42:20;;;;;;;11.85;2.80;;;15.60;99.90;;;;;;4998558;28;20119;-84
2023/03/30 00:45:22;;;;;;;10.35;2.50;;;15.70;99.90;;;;;;5002810;28;20073;-86
2023/03/30 00:47:48;;;;;;;14.85;2.80;;;15.70;99.90;;;;;;5017000;28;20037;-83
2023/03/30 00:50:15;;;;;;;12.00;2.15;;;15.80;99.90;;;;;;5023631;28;20125;-84
2023/03/30 00:52:43;;;;;;;11.32;2.47;;;15.80;99.90;;;;;;5011443;28;20031;-85
2023/03/30 00:55:10;;;;;;;8.48;2.40;;;;;;;;;;5031444;28;20057;-82
2023/03/30 00:57:37;;;;;;;9.13;2.47;;;15.60;99.90;;;;;;5030465;28;20094;-84
2023/03/30 01:00:07;;;;;;;8.85;2.53;;;15.70;99.90;;;;;;5009129;28;20498;-86
2023/03/30 01:02:38;;;;;;;7.78;2.45;;;15.60;99.90;;;;;;5011009;28;20029;-85
2023/03/30 01:05:05;;;;;;;10.93;2.58;;;15.60;99.90;;;;;;5026665;28;20022;-85
2023/03/30 01:07:31;;;;;;;7.95;2.33;;;15.60;99.90;;;;;;5008026;28;20018;-85
2023/03/30 01:09:58;;;;;;;11.18;2.40;;;15.50;99.90;;;;;;5011275;28;20490;-86
2023/03/30 01:12:24;;;;;;;5.70;2.20;;;15.50;99.90;;;;;;5014771;28;20037;-84
2023/03/30 01:14:50;;;;;;;15.13;2.95;;;15.50;99.90;;;;;;5009434;28;20018;-85
2023/03/30 01:17:30;;;;;;;14.27;2.65;;;15.50;99.90;;;;;;5005459;28;20036;-85
2023/03/30 01:20:08;;;;;;;7.35;2.50;;;15.40;99.90;;;;;;5003259;28;20026;-86
2023/03/30 01:22:55;;;;;;;10.57;2.50;;;15.30;99.90;;;;;;5011925;28;20068;-85
2023/03/30 01:25:42;;;;;;;9.38;2.53;;;15.30;99.90;;;;;;5019923;28;20044;-85
2023/03/30 01:28:24;;;;;;;10.35;2.50;;;15.20;99.90;;;;;;5024646;28;20030;-87
2023/03/30 01:30:50;;;;;;;6.00;2.20;;;;;;;;;;5019324;28;20026;-83
2023/03/30 01:33:30;;;;;;;13.38;3.60;;;15.00;99.90;;;;;;5009565;28;20037;-85
2023/03/30 01:36:02;;;;;;;7.97;2.30;;;15.10;99.90;;;;;;5017900;28;20348;-85
2023/03/30 01:38:43;;;;;;;14.90;3.45;;;15.10;99.90;;;;;;5023403;28;20437;-83
2023/03/30 01:41:28;;;;;;;9.68;2.80;;;15.10;99.90;;;;;;5007778;28;20022;-86
2023/03/30 01:44:00;;;;;;;8.68;2.60;;;15.00;99.90;;;;;;5008370;28;20033;-83
2023/03/30 01:46:36;;;;;;;8.75;2.20;;;15.00;99.90;;;;;;5024264;28;20059;-85
2023/03/30 01:49:23;;;;;;;8.55;2.72;;;14.90;99.90;;;;;;5006521;28;20072;-87
2023/03/30 01:52:05;;;;;;;11.25;3.28;;;14.90;99.90;;;;;;5015028;28;20029;-85
2023/03/30 01:54:37;;;;;;;7.10;2.40;;;14.90;99.90;;;;;;5025314;28;20046;-83
2023/03/30 01:57:20;;;;;;;12.32;3.08;;;14.80;99.90;;;;;;5030416;28;20034;-82
2023/03/30 01:59:51;;;;;;;11.30;2.70;;;14.80;99.90;;;;;;5017783;28;20037;-86
2023/03/30 02:02:20;;;;;;;9.00;2.85;;;14.70;99.90;;;;;;5006932;28;20026;-85
2023/03/30 02:04:47;;;;;;;12.15;3.47;;;14.70;99.90;;;;;;5010141;28;20060;-85
2023/03/30 02:07:23;;;;;;;11.30;2.78;;;14.70;99.90;;;;;;5008948;28;20061;-85
2023/03/30 02:09:52;;;;;;;14.30;2.97;;;14.70;99.90;;;;;;5009703;28;20367;-85
2023/03/30 02:12:18;;;;;;;15.95;3.17;;;14.70;99.90;;;;;;5006536;28;20026;-85
2023/03/30 02:14:47;;;;;;;12.20;3.30;;;15.40;99.90;;;;;;5013419;28;20030;-82
2023/03/30 02:17:23;;;;;;;13.60;2.88;;;15.20;99.90;;;;;;5010115;28;20026;-85
2023/03/30 02:20:01;;;;;;;14.75;3.38;;;14.60;99.90;;;;;;5005740;28;20030;-85
2023/03/30 02:22:28;;;;;;;13.02;2.60;;;14.60;99.90;;;;;;5000305;28;20027;-84
2023/03/30 02:24:56;;;;;;;13.88;3.15;;;14.60;99.90;;;;;;4998783;28;20026;-82
2023/03/30 02:27:23;;;;;;;13.27;2.67;;;14.60;99.90;;;;;;5024543;28;20113;-85
2023/03/30 02:29:49;;;;;;;9.27;2.28;;;14.60;99.90;;;;;;5018475;28;20141;-84
2023/03/30 02:32:26;;;;;;;14.05;2.88;;;14.40;99.90;;;;;;5007825;28;20038;-85
2023/03/30 02:35:17;;;;;;;11.27;2.53;;;14.50;99.90;;;;;;5017512;28;20013;-83
2023/03/30 02:38:03;;;;;;;15.45;3.40;;;14.50;99.90;;;;;;5010874;28;20026;-86
2023/03/30 02:40:43;;;;;;;10.07;3.08;;;14.50;99.90;;;;;;5027884;28;20483;-86
2023/03/30 02:43:30;;;;;;;11.75;2.83;;;14.50;99.90;;;;;;5024017;28;20029;-84
2023/03/30 02:46:13;;;;;;;12.35;3.22;;;14.50;99.90;;;;;;5001397;28;20026;-82
2023/03/30 02:48:54;;;;;;;14.18;3.00;;;14.50;99.90;;;;;;5007635;28;20025;-84
2023/03/30 02:51:22;;;;;;;14.13;3.47;;;14.40;99.90;;;;;;5003993;28;20099;-85
2023/03/30 02:54:08;;;;;;;11.88;2.63;;;14.40;99.90;;;;;;5029097;28;20033;-83
2023/03/30 02:56:52;;;;;;;10.98;2.90;;;14.40;99.90;;;;;;5024798;28;20060;-83
2023/03/30 02:59:27;;;;;;;13.38;3.22;;;14.30;99.90;;;;;;4999462;28;20038;-85
2023/03/30 03:02:03;;;;;;;12.68;3.67;;;14.20;99.90;;;;;;5007585;28;20032;-85
2023/03/30 03:04:32;;;;;;;10.85;3.53;;;14.10;99.90;;;;;;5021512;28;20032;-85
2023/03/30 03:07:01;;;;;;;13.20;2.83;;;14.10;99.90;;;;;;5006969;28;20083;-84
2023/03/30 03:09:28;;;;;;;8.77;2.75;;;14.00;99.90;;;;;;5003863;28;20037;-85
2023/03/30 03:11:54;;;;;;;14.27;3.80;;;14.00;99.90;;;;;;5005149;28;20410;-85
2023/03/30 03:14:20;;;;;;;12.18;2.72;;;13.90;99.90;;;;;;5022854;28;20041;-84
2023/03/30 03:16:46;;;;;;;9.85;2.92;;;;;;;;;;5014113;28;20025;-84
2023/03/30 03:19:12;;;;;;;12.75;3.13;;;13.80;99.90;;;;;;5009161;28;20036;-84
2023/03/30 03:21:38;;;;;;;11.25;3.13;;;13.80;99.90;;;;;;5008458;28;20057;-85
2023/03/30 03:24:04;;;;;;;12.25;3.40;;;13.70;99.90;;;;;;5022907;28;20022;-85
2023/03/30 03:26:29;;;;;;;11.18;3.30;;;13.70;99.90;;;;;;5019993;28;20034;-83
2023/03/30 03:28:55;;;;;;;9.77;2.90;;;13.70;99.90;;;;;;5007247;28;20030;-84
2023/03/30 03:31:23;;;;;;;12.85;3.45;;;;;;;;;;5007036;28;20041;-84
2023/03/30 03:33:49;;;;;;;12.00;3.53;;;;;;;;;;5013050;28;20509;-84
2023/03/30 03:36:15;;;;;;;10.32;3.08;;;;;;;;;;5030754;22;20046;-86
2023/03/30 03:38:42;;;;;;;12.75;3.25;;;;;;;;;;5013718;28;20025;-85
2023/03/30 03:41:08;;;;;;;13.05;3.70;;;;;;;;;;5000751;28;20021;-86
2023/03/30 03:43:35;;;;;;;14.38;3.42;;;;;;;;;;5016739;28;20029;-87
2023/03/30 03:46:01;;;;;;;11.93;3.67;;;;;;;;;;5009577;28;20010;-85
2023/03/30 03:48:27;;;;;;;9.82;2.85;;;;;;;;;;5002060;28;20024;-85
2023/03/30 03:50:55;;;;;;;9.48;3.08;;;13.50;99.90;;;;;;5008511;28;20019;-87
2023/03/30 03:53:23;;;;;;;18.48;4.28;;;13.50;99.90;;;;;;5013691;28;20030;-88
2023/03/30 03:55:49;;;;;;;14.32;4.07;;;14.10;99.90;;;;;;5021721;28;20034;-86
2023/03/30 03:58:17;;;;;;;12.48;3.35;;;13.50;99.90;;;;;;4998338;28;20030;-87
2023/03/30 04:00:43;;;;;;;14.95;3.30;;;;;;;;;;5001454;28;20093;-86
2023/03/30 04:03:11;;;;;;;12.45;3.85;;;;;;;;;;5020290;28;20053;-87
2023/03/30 04:05:37;;;;;;;14.90;3.10;;;;;;;;;;5011773;28;20029;-88
2023/03/30 04:08:03;;;;;;;16.02;3.60;;;;;;;;;;5001513;28;20025;-84
2023/03/30 04:10:28;;;;;;;14.30;3.33;;;13.40;99.90;;;;;;5002176;28;20030;-87
2023/03/30 04:12:58;;;;;;;17.90;3.47;;;13.30;99.90;;;;;;5019923;28;20375;-86
2023/03/30 04:15:24;;;;;;;7.77;3.37;;;;;;;;;;5025524;28;20021;-87
2023/03/30 04:17:56;;;;;;;11.40;3.67;;;;;;;;;;5021453;28;20026;-85
2023/03/30 04:20:22;;;;;;;12.30;3.22;;;;;;;;;;5018071;28;20035;-88
2023/03/30 04:22:49;;;;;;;11.55;3.60;;;;;;;;;;5002936;28;20022;-87
2023/03/30 04:25:20;;;;;;;18.58;4.10;;;13.20;99.90;;;;;;4997306;28;20050;-87
2023/03/30 04:27:49;;;;;;;16.00;3.80;;;;;;;;;;5018427;28;20121;-86
2023/03/30 04:30:15;;;;;;;11.13;3.75;;;13.20;99.90;;;;;;5018348;28;20085;-85
2023/03/30 04:32:41;;;;;;;19.67;3.55;;;;;;;;;;4985593;28;20064;-83
2023/03/30 04:35:08;;;;;;;12.88;4.07;;;13.10;99.90;;;;;;5011375;28;20026;-89
2023/03/30 04:37:34;;;;;;;17.80;4.35;;;13.00;99.90;;;;;;5010584;28;20034;-86
2023/03/30 04:40:01;;;;;;;9.48;4.22;;;14.80;99.90;;;;;;5015781;28;20038;-87
2023/03/30 04:42:36;;;;;;;18.55;5.47;;;13.40;99.90;;;;;;5008874;28;20018;-86
2023/03/30 04:45:06;;;;;;;12.18;3.90;;;13.40;99.90;;;;;;5017313;28;21075;-88
2023/03/30 04:47:41;;;;;;;18.10;5.07;;;13.30;99.90;;;;;;5011295;28;20467;-87
2023/03/30 04:50:08;;;;;;;17.15;4.45;;;;;;;;;;5019712;28;20022;-89
2023/03/30 04:52:34;;;;;;;16.80;5.32;;;;;;;;;;5020036;28;20025;-89
2023/03/30 04:55:02;;;;;;;17.02;4.95;;;;;;;;;;5025828;28;20034;-87
2023/03/30 04:57:28;;;;;;;18.05;4.30;;;;;;;;;;5013369;28;20033;-87
2023/03/30 05:00:17;;;;;;;10.77;3.25;;;;;;;;;;5033166;28;20034;-87
2023/03/30 05:05:59;;;;;;;13.50;3.35;;;;;;;;;;5035361;28;20050;-89
2023/03/30 05:11:16;;;;;;;8.18;2.63;;;;;;;;;;4990917;28;20049;-86
2023/03/30 05:14:16;;;;;;;;;;;;;;;;;;;;;
2023/03/30 05:17:02;;;;;;;11.32;2.50;;;;;;;;;;5029304;28;20049;-86
2023/03/30 05:20:01;;;;;;;;;;;;;;;;;;;;;
2023/03/30 05:22:56;;;;;;;9.45;3.08;;;;;;;;;;5023374;28;20065;-89
2023/03/30 05:25:49;;;;;;;9.65;3.25;;;;;;;;;;5012662;28;20105;-88
2023/03/30 05:45:22;;;;;;;;;;;;;;;;;;;;;
2023/03/30 05:51:54;;;;;;;;;;;;;;;;;;;;;
2023/03/30 05:57:11;;;;;;;8.13;3.15;;;12.80;99.90;;;;;;4914458;23;20050;-82
2023/03/30 05:59:38;;;;;;;10.52;3.67;;;;;;;;;;5021592;28;20099;-83
2023/03/30 06:02:05;;;;;;;7.10;3.05;;;;;;;;;;5016639;28;20026;-82
2023/03/30 06:04:32;;;;;;;8.98;3.30;;;;;;;;;;5028481;28;20022;-87
2023/03/30 06:06:58;;;;;;;8.68;2.92;;;12.80;99.90;;;;;;5013162;28;20532;-85
2023/03/30 06:09:25;;;;;;;8.30;2.83;;;;;;;;;;5012694;28;20025;-83
2023/03/30 06:11:51;;;;;;;6.90;2.80;;;;;;;;;;5009073;28;20059;-87
2023/03/30 06:14:17;;;;;;;10.82;2.78;;;;;;;;;;5011538;28;20025;-85
2023/03/30 06:16:44;;;;;;;9.32;3.28;;;;;;;;;;5022693;28;20029;-86
2023/03/30 06:19:11;;;;;;;7.07;2.53;;;;;;;;;;5034921;28;20041;-85
2023/03/30 06:21:36;;;;;;;8.88;2.88;;;12.90;99.90;;;;;;5017350;28;20097;-85
2023/03/30 06:24:02;;;;;;;5.85;2.42;;;;;;;;;;5013048;28;20045;-85
2023/03/30 06:26:28;;;;;;;8.10;2.55;;;;;;;;;;5009890;28;20094;-85
2023/03/30 06:28:55;;;;;;;9.55;2.50;;;;;;;;;;5016929;28;20089;-88
2023/03/30 06:31:21;;;;;;;9.20;2.45;;;;;;;;;;5038820;28;20424;-87
2023/03/30 06:33:46;;;;;;;5.70;2.70;;;13.00;99.90;;;;;;5023027;28;20089;-85
2023/03/30 06:36:13;;;;;;;6.95;2.70;;;13.00;99.90;;;;;;5044593;28;20052;-84
2023/03/30 06:38:40;;;;;;;9.98;3.25;;;;;;;;;;5024231;28;20026;-84
2023/03/30 06:41:08;;;;;;;8.93;2.92;;;;;;;;;;5026969;28;20436;-83
2023/03/30 06:43:35;;;;;;;8.38;2.92;;;12.80;99.90;;;;;;5023568;28;20052;-85
2023/03/30 06:46:01;;;;;;;7.22;3.10;;;12.80;99.90;;;;;;5023532;28;20092;-83
2023/03/30 06:48:27;;;;;;;5.72;2.17;;;;;;;;;;5024624;28;20079;-87
2023/03/30 06:50:53;;;;;;;6.78;2.85;;;12.80;99.90;;;;;;5034355;28;20447;-86
2023/03/30 06:53:21;;;;;;;7.93;3.03;;;12.80;99.90;;;;;;5018178;28;20448;-85
2023/03/30 06:55:53;;;;;;;6.95;2.35;;;12.80;99.90;;;;;;5018753;28;20257;-85
2023/03/30 06:58:19;;;;;;;6.40;2.85;;;;;;;;;;5018808;28;20060;-86
2023/03/30 07:00:46;;;;;;;6.00;2.83;;;;;;;;;;5034707;28;20065;-85
2023/03/30 07:03:11;;;;;;;7.03;2.75;;;12.70;99.90;;;;;;5024726;28;20029;-83
2023/03/30 07:05:37;;;;;;;8.65;3.08;;;;;;;;;;5021432;28;20049;-86
2023/03/30 07:08:04;;;;;;;9.88;3.08;;;;;;;;;;5023865;28;20742;-85
2023/03/30 07:10:31;;;;;;;5.93;2.90;;;;;;;;;;5033895;28;20161;-85
2023/03/30 07:12:57;;;;;;;10.52;3.28;;;;;;;;;;5053590;28;20020;-86
2023/03/30 07:15:23;;;;;;;10.90;3.25;;;12.90;99.90;;;;;;5047088;28;20040;-84
2023/03/30 07:17:49;;;;;;;7.15;3.15;;;;;;;;;;5030179;28;20034;-83
2023/03/30 07:20:16;;;;;;;7.47;3.00;;;;;;;;;;5025378;28;20099;-83
2023/03/30 07:22:42;;;;;;;9.48;2.80;;;13.10;99.90;;;;;;5029986;28;20041;-84
2023/03/30 07:25:08;;;;;;;8.10;2.75;;;;;;;;;;5044178;28;20033;-84
2023/03/30 07:27:36;;;;;;;9.48;2.80;;;13.10;99.90;;;;;;5031914;28;20025;-84
2023/03/30 07:30:02;;;;;;;6.28;3.20;;;;;;;;;;5034339;28;20022;-86
2023/03/30 07:32:28;;;;;;;6.90;2.85;;;;;;;;;;5034900;28;20109;-84
2023/03/30 07:34:54;;;;;;;7.10;3.40;;;;;;;;;;5029971;28;20018;-85
2023/03/30 07:37:20;;;;;;;10.65;2.70;;;13.30;99.90;;;;;;5035094;28;20009;-85
2023/03/30 07:39:46;;;;;;;9.35;2.90;;;;;;;;;;5031555;28;20087;-82
2023/03/30 07:42:12;;;;;;;8.52;3.05;;;13.30;99.90;;;;;;5028712;28;20041;-82
2023/03/30 07:44:38;;;;;;;5.95;2.50;;;;;;;;;;5035216;28;20033;-82
2023/03/30 07:47:05;;;;;;;7.40;2.95;;;;;;;;;;5028646;28;20121;-81
2023/03/30 07:49:31;;;;;;;12.18;4.00;;;;;;;;;;5028769;28;20037;-82
2023/03/30 07:51:58;;;;;;;7.82;3.85;;;;;;;;;;5030180;28;20032;-83
2023/03/30 07:54:24;;;;;;;8.02;3.17;;;;;;;;;;5028475;28;20068;-84
2023/03/30 07:56:51;;;;;;;13.05;4.03;;;;;;;;;;5029864;28;20034;-84
2023/03/30 07:59:22;;;;;;;7.70;3.40;;;13.40;99.90;;;;;;5027637;28;20021;-82
2023/03/30 08:01:53;;;;;;;6.47;3.42;;;;;;;;;;5029782;28;20101;-85
2023/03/30 08:04:20;;;;;;;7.70;2.92;;;13.30;99.90;;;;;;5027354;28;20026;-82
2023/03/30 08:06:46;;;;;;;9.15;3.40;;;13.30;99.90;;;;;;5027635;28;20033;-84
2023/03/30 08:09:12;;;;;;;8.93;2.58;;;;;;;;;;5043749;28;20081;-85
2023/03/30 08:11:40;;;;;;;8.27;3.58;;;;;;;;;;5030625;28;20026;-86
2023/03/30 08:14:06;;;;;;;7.43;2.65;;;;;;;;;;5028029;28;20029;-86
2023/03/30 08:16:32;;;;;;;6.75;2.47;;;;;;;;;;5021888;28;20030;-85
2023/03/30 08:18:58;;;;;;;6.40;2.75;;;13.40;99.90;;;;;;5036452;28;20025;-85
2023/03/30 08:21:25;;;;;;;8.20;3.08;;;;;;;;;;5033037;28;20037;-82
2023/03/30 08:23:56;;;;;;;6.05;2.65;;;13.30;99.90;;;;;;5035722;28;20098;-82
2023/03/30 08:26:22;;;;;;;8.27;3.00;;;;;;;;;;5025583;28;20053;-84
2023/03/30 08:28:48;;;;;;;8.90;3.78;;;;;;;;;;5018750;28;20029;-85
2023/03/30 08:31:16;;;;;;;6.80;2.67;;;;;;;;;;5022582;28;20166;-84
2023/03/30 08:33:43;;;;;;;6.03;2.75;;;;;;;;;;5034141;28;20097;-85
2023/03/30 08:36:09;;;;;;;5.60;2.63;;;;;;;;;;5025540;28;20033;-87
2023/03/30 08:38:35;;;;;;;6.40;2.55;;;;;;;;;;5021052;28;20029;-85
2023/03/30 08:41:01;;;;;;;6.82;2.85;;;;;;;;;;5024637;28;20036;-83
2023/03/30 08:43:53;;;;;;;7.88;3.10;;;13.40;99.90;;;;;;5022239;28;20022;-84
2023/03/30 08:46:19;;;;;;;6.88;2.47;;;;;;;;;;5024639;28;20033;-87
2023/03/30 08:48:47;;;;;;;6.20;2.60;;;13.50;99.90;;;;;;5026841;28;20045;-85
2023/03/30 08:51:13;;;;;;;5.72;2.35;;;;;;;;;;5022542;28;20414;-85
2023/03/30 08:53:39;;;;;;;9.30;3.20;;;;;;;;;;5036348;28;20022;-88
2023/03/30 08:56:07;;;;;;;6.75;2.97;;;;;;;;;;5041803;28;20021;-86
2023/03/30 08:58:42;;;;;;;5.35;2.70;;;13.50;99.90;;;;;;5025849;28;20106;-84
2023/03/30 09:01:17;;;;;;;7.22;2.53;;;13.50;99.90;;;;;;5027579;28;20064;-84
2023/03/30 09:04:02;;;;;;;10.73;2.50;;;13.60;99.90;;;;;;5024316;28;20093;-87
2023/03/30 09:06:42;;;;;;;8.55;2.97;;;13.60;99.90;;;;;;5021880;28;20029;-84
2023/03/30 09:09:12;;;;;;;4.77;2.63;;;13.70;99.90;;;;;;5046827;28;20343;-84
2023/03/30 09:11:39;;;;;;;6.65;2.50;;;;;;;;;;5025514;28;20296;-88
2023/03/30 09:14:11;;;;;;;12.93;4.32;;;13.70;99.90;;;;;;5023124;28;20116;-89
2023/03/30 09:16:37;;;;;;;7.65;3.70;;;;;;;;;;5021398;28;20031;-85
2023/03/30 09:19:07;;;;;;;6.72;2.90;;;13.90;99.90;;;;;;5025794;28;20053;-84
2023/03/30 09:21:33;;;;;;;9.43;3.23;;;;;;;;;;5023030;28;20022;-84
2023/03/30 09:24:05;;;;;;;9.98;3.13;;;14.10;99.90;;;;;;5039956;28;20025;-85
2023/03/30 09:27:01;;;;;;;7.57;2.78;;;14.80;99.90;;;;;;5024809;28;20022;-84
2023/03/30 09:29:57;;;;;;;8.57;2.80;;;14.10;99.90;;;;;;5039806;28;20029;-86
2023/03/30 09:32:31;;;;;;;8.48;2.58;;;14.20;99.90;;;;;;5018873;28;20040;-84
2023/03/30 09:35:23;;;;;;;7.50;2.78;;;14.30;99.90;;;;;;5025044;28;20490;-84
2023/03/30 09:37:49;;;;;;;8.00;2.67;;;14.20;99.90;;;;;;5020875;28;20052;-85
2023/03/30 09:40:26;;;;;;;7.32;2.65;;;14.20;99.90;;;;;;5041109;28;20485;-86
2023/03/30 09:43:08;;;;;;;6.20;2.70;;;14.20;99.90;;;;;;5037547;28;20056;-83
2023/03/30 09:45:35;;;;;;;4.93;2.42;;;14.20;99.90;;;;;;5029076;28;20042;-86
2023/03/30 09:48:07;;;;;;;8.27;2.63;;;;;;;;;;5029285;28;20032;-84
2023/03/30 09:50:42;;;;;;;4.57;2.22;;;14.60;99.90;;;;;;5020837;28;20039;-82
2023/03/30 09:53:28;;;;;;;5.22;2.13;;;14.90;99.90;;;;;;5039825;28;20075;-83
2023/03/30 09:56:19;;;;;;;6.65;2.35;;;15.30;99.90;;;;;;5025091;28;20025;-86
2023/03/30 09:58:45;;;;;;;5.45;2.17;;;;;;;;;;5014455;28;20053;-86
2023/03/30 10:01:17;;;;;;;9.18;2.58;;;15.80;99.90;;;;;;5021277;28;20030;-86
2023/03/30 10:03:44;;;;;;;6.88;2.13;;;15.70;99.90;;;;;;5036556;28;20381;-85
2023/03/30 10:06:18;;;;;;;5.70;1.83;;;15.80;99.90;;;;;;5025341;28;20021;-88
2023/03/30 10:08:55;;;;;;;7.35;2.03;;;15.80;99.90;;;;;;5023512;28;20029;-88
2023/03/30 10:11:43;;;;;;;8.73;2.65;;;15.70;99.90;;;;;;5027368;28;20065;-87
2023/03/30 10:14:34;;;;;;;4.60;1.90;;;15.70;99.90;;;;;;5018156;28;20060;-85
2023/03/30 10:17:00;;;;;;;4.90;1.92;;;;;;;;;;5018662;28;20029;-87
2023/03/30 10:19:26;;;;;;;11.60;2.58;;;15.70;99.90;;;;;;5023546;28;20034;-85
2023/03/30 10:21:57;;;;;;;5.20;1.70;;;15.80;99.90;;;;;;5020403;28;20029;-84
2023/03/30 10:24:30;;;;;;;7.50;2.17;;;15.90;99.90;;;;;;5023272;28;20109;-87
2023/03/30 10:27:16;;;;;;;4.10;1.60;;;15.80;99.90;;;;;;5021508;28;20109;-86
2023/03/30 10:29:51;;;;;;;7.03;2.45;;;15.70;99.90;;;;;;5024571;28;20057;-85
2023/03/30 10:32:20;;;;;;;7.45;1.92;;;15.90;99.90;;;;;;5041111;28;20509;-84
2023/03/30 10:34:56;;;;;;;5.90;1.90;;;15.90;99.90;;;;;;5041501;28;20501;-84
2023/03/30 10:37:29;;;;;;;5.88;1.73;;;16.00;99.90;;;;;;5040136;28;20089;-83
2023/03/30 10:39:55;;;;;;;8.55;2.03;;;;;;;;;;5021628;28;20060;-86
2023/03/30 10:42:25;;;;;;;7.10;1.95;;;16.10;99.90;;;;;;5023227;28;20032;-83
2023/03/30 10:45:00;;;;;;;7.00;2.00;;;16.30;99.90;;;;;;5020623;28;20025;-84
2023/03/30 10:47:44;;;;;;;9.00;2.33;;;16.30;99.90;;;;;;5017287;28;20092;-84
2023/03/30 10:50:21;;;;;;;7.65;1.50;;;16.50;99.90;;;;;;5019285;28;20033;-87
2023/03/30 10:52:56;;;;;;;8.75;1.58;;;16.50;99.90;;;;;;5014269;28;20029;-84
2023/03/30 10:55:38;;;;;;;7.35;1.70;;;16.70;99.90;;;;;;5012576;28;20048;-84
2023/03/30 10:58:31;;;;;;;3.92;1.40;;;16.70;99.90;;;;;;5022523;28;20049;-85
2023/03/30 11:01:02;;;;;;;5.22;1.52;;;16.70;99.90;;;;;;5015719;28;20034;-84
2023/03/30 11:03:31;;;;;;;3.40;1.23;;;16.70;99.90;;;;;;5016509;28;20030;-87
2023/03/30 11:06:08;;;;;;;5.05;1.58;;;16.80;99.90;;;;;;5036428;28;20029;-86
2023/03/30 11:08:41;;;;;;;5.78;1.33;;;16.90;99.90;;;;;;5021199;28;20025;-84
2023/03/30 11:11:17;;;;;;;7.82;1.75;;;16.90;99.90;;;;;;5036047;28;20191;-85
2023/03/30 11:13:45;;;;;;;3.58;1.10;;;;;;;;;;5018698;28;20121;-86
2023/03/30 11:16:13;;;;;;;7.50;1.70;;;;;;;;;;5024124;28;20033;-87
2023/03/30 11:18:42;;;;;;;7.28;1.63;;;;;;;;;;5017734;28;20034;-83
2023/03/30 11:21:23;;;;;;;6.22;1.63;;;17.40;99.90;;;;;;5016488;28;20033;-85
2023/03/30 11:23:55;;;;;;;4.75;1.50;;;17.40;99.90;;;;;;5024077;28;20087;-85
2023/03/30 11:26:24;;;;;;;5.82;1.58;;;17.30;99.90;;;;;;5049853;28;20020;-86
2023/03/30 11:28:55;;;;;;;4.65;1.40;;;17.30;99.90;;;;;;5034738;28;20053;-85
2023/03/30 11:31:48;;;;;;;5.53;1.45;;;17.10;99.90;;;;;;5013384;28;20036;-84
2023/03/30 11:34:26;;;;;;;4.35;1.52;;;16.90;99.90;;;;;;5016470;28;20029;-85
2023/03/30 11:37:07;;;;;;;7.60;1.40;;;16.90;99.90;;;;;;5022874;28;20029;-86
2023/03/30 11:39:37;;;;;;;10.73;1.70;;;17.10;99.90;;;;;;5020568;28;20049;-85
2023/03/30 11:42:27;;;;;;;4.75;1.25;;;17.10;99.90;;;;;;5020825;28;20474;-88
2023/03/30 11:44:53;;;;;;;6.82;1.48;;;17.10;99.90;;;;;;5022867;28;20025;-85
2023/03/30 11:47:19;;;;;;;5.18;1.70;;;;;;;;;;5025012;28;20030;-84
2023/03/30 11:49:56;;;;;;;6.40;1.65;;;17.30;99.90;;;;;;5040989;28;20021;-83
2023/03/30 11:52:48;;;;;;;6.53;1.48;;;17.30;99.90;;;;;;5035427;28;20514;-85
2023/03/30 11:55:45;;;;;;;6.32;1.83;;;17.30;99.90;;;;;;5036427;28;20041;-84
2023/03/30 11:58:39;;;;;;;5.93;1.75;;;16.90;99.90;;;;;;5048185;28;20028;-82
2023/03/30 12:01:25;;;;;;;4.82;1.35;;;16.90;99.90;;;;;;5032637;28;20036;-86
2023/03/30 12:04:15;;;;;;;5.22;1.20;;;16.60;99.90;;;;;;5040687;28;20057;-84
2023/03/30 12:06:54;;;;;;;4.13;1.00;;;16.60;99.90;;;;;;5021019;28;20088;-84
2023/03/30 12:09:27;;;;;;;4.38;1.60;;;16.70;99.90;;;;;;5049585;28;20033;-83
2023/03/30 12:12:02;;;;;;;8.32;2.03;;;16.70;99.90;;;;;;5021622;28;20021;-87
2023/03/30 12:14:46;;;;;;;5.50;1.65;;;16.90;99.90;;;;;;5013635;28;20045;-86
2023/03/30 12:17:39;;;;;;;5.18;1.40;;;17.20;99.90;;;;;;5009765;28;20045;-86
2023/03/30 12:20:11;;;;;;;3.40;1.20;;;17.60;99.90;;;;;;5026139;28;20029;-86
2023/03/30 12:23:02;;;;;;;7.70;2.10;;;17.60;99.90;;;;;;5011647;28;20037;-86
2023/03/30 12:25:28;;;;;;;5.80;1.55;;;;;;;;;;5011942;28;20079;-88
2023/03/30 12:28:12;;;;;;;7.00;1.48;;;17.90;99.90;;;;;;5012161;28;20057;-86
2023/03/30 12:30:42;;;;;;;5.97;1.50;;;;;;;;;;5029942;28;20104;-87
2023/03/30 12:33:33;;;;;;;5.03;1.42;;;18.10;99.50;;;;;;5012477;28;20041;-87
2023/03/30 12:36:24;;;;;;;8.73;1.50;;;18.10;99.50;;;;;;5012663;28;20108;-88
2023/03/30 12:38:56;;;;;;;6.07;1.20;;;18.20;99.30;;;;;;5012140;28;20030;-86
2023/03/30 12:41:25;;;;;;;6.10;1.38;;;18.10;98.70;;;;;;5012198;28;20383;-87
2023/03/30 12:44:17;;;;;;;6.45;1.55;;;18.10;98.40;;;;;;5012823;28;20033;-86
2023/03/30 12:46:57;;;;;;;5.43;1.50;;;18.00;98.40;;;;;;5012340;28;20034;-87
2023/03/30 12:49:50;;;;;;;5.13;1.30;;;18.10;98.50;;;;;;5012231;28;20090;-87
2023/03/30 12:52:22;;;;;;;6.53;1.15;;;18.10;98.50;;;;;;5011520;28;20030;-88
2023/03/30 12:54:48;;;;;;;6.80;1.58;;;;;;;;;;5011049;28;20042;-86
2023/03/30 12:57:15;;;;;;;7.43;1.50;;;;;;;;;;5010375;28;20107;-88
2023/03/30 13:00:15;;;;;;;5.00;1.30;;;17.70;99.90;;;;;;5010406;28;20030;-87
2023/03/30 13:02:41;;;;;;;5.22;1.52;;;;;;;;;;5028948;28;20127;-87
2023/03/30 13:05:22;;;;;;;3.58;1.20;;;17.00;99.90;;;;;;5029229;28;20041;-85
2023/03/30 13:07:51;;;;;;;5.72;1.00;;;17.00;99.90;;;;;;5026764;28;20029;-88
2023/03/30 13:10:29;;;;;;;6.38;1.42;;;;;;;;;;5027753;28;20022;-88
2023/03/30 13:13:01;;;;;;;3.97;1.08;;;16.80;99.90;;;;;;5012047;28;20030;-87
2023/03/30 13:15:38;;;;;;;5.07;1.55;;;16.80;99.90;;;;;;5008767;28;20022;-88
2023/03/30 13:18:11;;;;;;;6.15;1.02;;;;;;;;;;5009030;28;20026;-87
2023/03/30 13:20:57;;;;;;;6.25;1.20;;;16.50;99.90;;;;;;5008871;28;20191;-87
2023/03/30 13:23:23;;;;;;;6.90;1.65;;;;;;;;;;5009478;28;20095;-85
2023/03/30 13:26:04;;;;;;;5.78;1.33;;;16.40;99.90;;;;;;5010763;28;20391;-87
2023/03/30 13:29:06;;;;;;;3.83;1.30;;;16.30;99.90;;;;;;5024012;28;20033;-89
2023/03/30 13:32:16;;;;;;;7.03;1.40;;;16.30;99.90;;;;;;5019148;28;20441;-89
2023/03/30 13:34:47;;;;;;;5.03;1.55;;;16.30;99.90;;;;;;4979827;28;20076;-87
2023/03/30 13:37:16;;;;;;;27.52;2.08;;;16.30;99.90;;;;;;5025891;28;20037;-88
2023/03/30 13:39:57;;;;;;;1.98;0.80;;;16.70;99.90;;;;;;5028182;28;20033;-87
2023/03/30 13:42:58;;;;;;;4.78;1.20;;;16.70;99.90;;;;;;5026868;28;20055;-88
2023/03/30 13:45:49;;;;;;;3.42;1.13;;;16.90;99.90;;;;;;5036519;28;20093;-86
2023/03/30 13:48:29;;;;;;;2.38;0.90;;;17.10;99.70;;;;;;5026540;28;20017;-87
2023/03/30 13:50:57;;;;;;;3.13;1.05;;;17.20;99.00;;;;;;5022143;28;20120;-89
2023/03/30 13:53:27;;;;;;;2.33;0.75;;;17.30;98.40;;;;;;5024610;28;20129;-86
2023/03/30 13:55:54;;;;;;;3.30;0.63;;;17.20;97.80;;;;;;5022181;28;20112;-88
2023/03/30 13:58:20;;;;;;;1.75;0.63;;;;;;;;;;5023121;28;20042;-88
2023/03/30 14:00:52;;;;;;;2.58;0.90;;;17.10;98.20;;;;;;5019892;28;20036;-89
2023/03/30 14:03:27;;;;;;;3.38;0.80;;;17.10;98.50;;;;;;5031133;28;20037;-87
2023/03/30 14:05:53;;;;;;;3.38;1.00;;;17.20;97.70;;;;;;5034910;28;20116;-87
2023/03/30 14:08:19;;;;;;;4.47;1.00;;;;;;;;;;5016570;28;20390;-87
2023/03/30 14:10:48;;;;;;;4.72;1.05;;;17.40;97.10;;;;;;5026131;28;20025;-89
2023/03/30 14:13:15;;;;;;;3.25;1.10;;;;;;;;;;5028021;28;20061;-90
2023/03/30 14:15:41;;;;;;;4.55;1.20;;;;;;;;;;5021220;28;20029;-87
2023/03/30 14:18:12;;;;;;;7.65;1.73;;;17.70;96.80;;;;;;5019095;28;20042;-89
2023/03/30 14:20:54;;;;;;;6.00;1.60;;;17.70;96.90;;;;;;5018896;28;20036;-86